Time;durP1;ratioP1;P1;durP2;ratioP2;P2;SDS_P1;SDS_P2;PMS_P1;PMS_P2;Temp;Humidity;BMP_temperature;BMP_pressure;BME280_temperature;BME280_humidity;BME280_pressure;Samples;Min_cycle;Max_cycle;Signal;HPM_P1;HPM_P2
2023/09/15 00:01:48;;;;;;;;;;;;;;;;;;5075967;28;19913;-64
2023/09/15 00:04:13;;;;;;;;;;;;;;;;;;5075906;28;19934;-65
2023/09/15 00:06:39;;;;;;;;;;;;;;;;;;5075924;28;19913;-64
2023/09/15 00:09:06;;;;;;;;;;;;;;;;;;5075888;28;19917;-63
2023/09/15 00:11:39;;;;;;;;;;;;;;;;;;5075880;28;19909;-64
2023/09/15 00:14:05;;;;;;;;;;;;;;;;;;5075903;28;19987;-63
2023/09/15 00:16:30;;;;;;;;;;;;;;;;;;5091336;28;19912;-62
2023/09/15 00:18:56;;;;;;;;;;;;;;;;;;5095180;28;19917;-64
2023/09/15 00:21:21;;;;;;;;;;;;;;;;;;5095582;28;19923;-64
2023/09/15 00:23:47;;;;;;;;;;;;;;;;;;5095676;28;19916;-65
2023/09/15 00:26:12;;;;;;;;;;;;;;;;;;5083188;28;19912;-65
2023/09/15 00:28:39;;;;;;;;;;;;;;;;;;5075569;28;19913;-65
2023/09/15 00:31:05;;;;;;;;;;;;;;;;;;5074921;28;19921;-65
2023/09/15 00:33:30;;;;;;;;;;;;;;;;;;5075361;28;19939;-63
2023/09/15 00:35:56;;;;;;;;;;;;;;;;;;5084609;28;19913;-65
2023/09/15 00:38:21;;;;;;;;;;;;;;;;;;5095407;28;19963;-64
2023/09/15 00:40:47;;;;;;;;;;;;;;;;;;5095497;28;19934;-65
2023/09/15 00:43:12;;;;;;;;;;;;;;;;;;5095396;28;19912;-66
2023/09/15 00:45:38;;;;;;;;;;;;;;;;;;5095380;28;19912;-64
2023/09/15 00:48:04;;;;;;;;;;;;;;;;;;5077409;28;19912;-64
2023/09/15 00:50:31;;;;;;;;;;;;;;;;;;5077605;28;19912;-63
2023/09/15 00:52:57;;;;;;;;;;;;;;;;;;5095148;28;19916;-64
2023/09/15 00:55:22;;;;;;;;;;;;;;;;;;5074687;28;19920;-64
2023/09/15 00:57:48;;;;;;;;;;;;;;;;;;5058028;28;19972;-64
2023/09/15 01:00:14;;;;;;;;;;;;;;;;;;5057649;28;19912;-64
2023/09/15 01:02:39;;;;;;;;;;;;;;;;;;5075126;28;19948;-64
2023/09/15 01:05:07;;;;;;;;;;;;;;;;;;5075032;28;19909;-64
2023/09/15 01:07:32;;;;;;;;;;;;;;;;;;5094814;28;19935;-64
2023/09/15 01:09:58;;;;;;;;;;;;;;;;;;5094844;28;19912;-64
2023/09/15 01:12:24;;;;;;;;;;;;;;;;;;5077401;28;19913;-64
2023/09/15 01:14:49;;;;;;;;;;;;;;;;;;5077642;28;19920;-64
2023/09/15 01:17:15;;;;;;;;;;;;;;;;;;5070536;28;19921;-65
2023/09/15 01:19:41;;;;;;;;;;;;;;;;;;5108466;28;19943;-66
2023/09/15 01:22:06;;;;;;;;;;;;;;;;;;5114321;28;19916;-64
2023/09/15 01:24:31;;;;;;;;;;;;;;;;;;5114568;28;19915;-64
2023/09/15 01:26:56;;;;;;;;;;;;;;;;;;5102062;28;19923;-65
2023/09/15 01:29:22;;;;;;;;;;;;;;;;;;5094299;28;19912;-65
2023/09/15 01:31:48;;;;;;;;;;;;;;;;;;5094535;28;19927;-65
2023/09/15 01:34:13;;;;;;;;;;;;;;;;;;5094203;28;19922;-64
2023/09/15 01:36:39;;;;;;;;;;;;;;;;;;5105077;28;19912;-62
2023/09/15 01:39:04;;;;;;;;;;;;;;;;;;5114394;28;19916;-63
2023/09/15 01:41:30;;;;;;;;;;;;;;;;;;5116293;28;19931;-64
2023/09/15 01:43:55;;;;;;;;;;;;;;;;;;5119140;28;19912;-63
2023/09/15 01:46:23;;;;;;;;;;;;;;;;;;5112399;28;19948;-64
2023/09/15 01:48:49;;;;;;;;;;;;;;;;;;5098721;28;19912;-63
2023/09/15 01:51:15;;;;;;;;;;;;;;;;;;5098608;28;19939;-64
2023/09/15 01:53:41;;;;;;;;;;;;;;;;;;5098421;28;19921;-63
2023/09/15 01:56:06;;;;;;;;;;;;;;;;;;5097742;28;19913;-63
2023/09/15 01:58:31;;;;;;;;;;;;;;;;;;5098538;28;19919;-63
2023/09/15 02:00:57;;;;;;;;;;;;;;;;;;5097501;28;19913;-63
2023/09/15 02:03:25;;;;;;;;;;;;;;;;;;5097444;28;19916;-63
2023/09/15 02:05:51;;;;;;;;;;;;;;;;;;5098100;28;19966;-63
2023/09/15 02:08:18;;;;;;;;;;;;;;;;;;5117628;28;19919;-64
2023/09/15 02:10:44;;;;;;;;;;;;;;;;;;5100596;28;19912;-64
2023/09/15 02:13:09;;;;;;;;;;;;;;;;;;5097158;28;19923;-63
2023/09/15 02:15:35;;;;;;;;;;;;;;;;;;5080725;28;19920;-64
2023/09/15 02:18:00;;;;;;;;;;;;;;;;;;5102726;28;20011;-64
2023/09/15 02:20:26;;;;;;;;;;;;;;;;;;5097908;28;19913;-65
2023/09/15 02:22:51;;;;;;;;;;;;;;;;;;5080574;28;19913;-63
2023/09/15 02:25:17;;;;;;;;;;;;;;;;;;5080408;28;19920;-64
2023/09/15 02:27:42;;;;;;;;;;;;;;;;;;5066186;28;19913;-63
2023/09/15 02:30:08;;;;;;;;;;;;;;;;;;5077827;28;19944;-63
2023/09/15 02:32:33;;;;;;;;;;;;;;;;;;5077729;28;19913;-63
2023/09/15 02:34:59;;;;;;;;;;;;;;;;;;5078049;28;19917;-66
2023/09/15 02:37:24;;;;;;;;;;;;;;;;;;5071974;28;19912;-64
2023/09/15 02:39:50;;;;;;;;;;;;;;;;;;5097747;28;19912;-63
2023/09/15 02:42:15;;;;;;;;;;;;;;;;;;5080212;28;19912;-63
2023/09/15 02:44:41;;;;;;;;;;;;;;;;;;5080092;28;19913;-63
2023/09/15 02:47:08;;;;;;;;;;;;;;;;;;5072317;28;19916;-64
2023/09/15 02:49:33;;;;;;;;;;;;;;;;;;5060040;28;19913;-64
2023/09/15 02:52:01;;;;;;;;;;;;;;;;;;5059511;28;19917;-63
2023/09/15 02:54:26;;;;;;;;;;;;;;;;;;5059278;28;19917;-64
2023/09/15 02:56:51;;;;;;;;;;;;;;;;;;5064166;28;19920;-64
2023/09/15 02:59:17;;;;;;;;;;;;;;;;;;5062889;28;19913;-63
2023/09/15 03:01:42;;;;;;;;;;;;;;;;;;5097264;28;20052;-64
2023/09/15 03:04:08;;;;;;;;;;;;;;;;;;5079572;28;19912;-61
2023/09/15 03:06:33;;;;;;;;;;;;;;;;;;5056453;28;19998;-64
2023/09/15 03:08:59;;;;;;;;;;;;;;;;;;5079387;28;19920;-64
2023/09/15 03:11:24;;;;;;;;;;;;;;;;;;5061421;28;19923;-64
2023/09/15 03:13:58;;;;;;;;;;;;;;;;;;5059289;28;19939;-64
2023/09/15 03:16:25;;;;;;;;;;;;;;;;;;5059239;28;20392;-64
2023/09/15 03:18:51;;;;;;;;;;;;;;;;;;5114816;28;19975;-64
2023/09/15 03:21:17;;;;;;;;;;;;;;;;;;5116259;28;19930;-63
2023/09/15 03:23:43;;;;;;;;;;;;;;;;;;5116237;28;19916;-64
2023/09/15 03:26:08;;;;;;;;;;;;;;;;;;5116119;28;19950;-64
2023/09/15 03:28:35;;;;;;;;;;;;;;;;;;5099849;28;19938;-64
2023/09/15 03:31:00;;;;;;;;;;;;;;;;;;5096642;28;19909;-64
2023/09/15 03:33:25;;;;;;;;;;;;;;;;;;5095577;28;19938;-64
2023/09/15 03:35:51;;;;;;;;;;;;;;;;;;5095579;28;19944;-64
2023/09/15 03:38:17;;;;;;;;;;;;;;;;;;5109168;28;19994;-65
2023/09/15 03:40:43;;;;;;;;;;;;;;;;;;5106954;28;19940;-64
2023/09/15 03:43:09;;;;;;;;;;;;;;;;;;5096192;28;19912;-64
2023/09/15 03:45:34;;;;;;;;;;;;;;;;;;5095321;28;19919;-64
2023/09/15 03:47:59;;;;;;;;;;;;;;;;;;5104869;28;19984;-63
2023/09/15 03:50:25;;;;;;;;;;;;;;;;;;5115347;28;19916;-64
2023/09/15 03:52:50;;;;;;;;;;;;;;;;;;5115266;28;19951;-62
2023/09/15 03:55:17;;;;;;;;;;;;;;;;;;5116186;28;19912;-63
2023/09/15 03:57:42;;;;;;;;;;;;;;;;;;5109179;28;19948;-64
2023/09/15 04:00:15;;;;;;;;;;;;;;;;;;5095115;28;19913;-64
2023/09/15 04:02:40;;;;;;;;;;;;;;;;;;5095067;28;19919;-64
2023/09/15 04:05:06;;;;;;;;;;;;;;;;;;5095171;28;19916;-63
2023/09/15 04:07:31;;;;;;;;;;;;;;;;;;5098871;28;19919;-64
2023/09/15 04:09:57;;;;;;;;;;;;;;;;;;5116119;28;19912;-64
2023/09/15 04:12:23;;;;;;;;;;;;;;;;;;5115246;28;19912;-63
2023/09/15 04:14:48;;;;;;;;;;;;;;;;;;5115971;28;19916;-64
2023/09/15 04:17:14;;;;;;;;;;;;;;;;;;5114315;28;19955;-64
2023/09/15 04:19:40;;;;;;;;;;;;;;;;;;5094809;28;19930;-63
2023/09/15 04:22:05;;;;;;;;;;;;;;;;;;5094885;28;19912;-63
2023/09/15 04:24:30;;;;;;;;;;;;;;;;;;5094876;28;19912;-63
2023/09/15 04:26:56;;;;;;;;;;;;;;;;;;5095566;28;19920;-63
2023/09/15 04:29:22;;;;;;;;;;;;;;;;;;5112076;28;19972;-63
2023/09/15 04:31:47;;;;;;;;;;;;;;;;;;5114757;28;19913;-63
2023/09/15 04:34:14;;;;;;;;;;;;;;;;;;5114721;28;19916;-63
2023/09/15 04:36:40;;;;;;;;;;;;;;;;;;5114954;28;19908;-63
2023/09/15 04:39:05;;;;;;;;;;;;;;;;;;5101604;28;19955;-64
2023/09/15 04:41:31;;;;;;;;;;;;;;;;;;5095337;28;19913;-64
2023/09/15 04:43:56;;;;;;;;;;;;;;;;;;5094696;28;19919;-63
2023/09/15 04:46:24;;;;;;;;;;;;;;;;;;5094494;28;19962;-63
2023/09/15 04:48:50;;;;;;;;;;;;;;;;;;5106546;28;19935;-63
2023/09/15 04:51:16;;;;;;;;;;;;;;;;;;5114548;28;19979;-64
2023/09/15 04:53:42;;;;;;;;;;;;;;;;;;5115500;28;19916;-63
2023/09/15 04:56:07;;;;;;;;;;;;;;;;;;5114822;28;19912;-63
2023/09/15 04:58:33;;;;;;;;;;;;;;;;;;5106619;28;19908;-64
2023/09/15 05:00:59;;;;;;;;;;;;;;;;;;5094398;28;19916;-63
2023/09/15 05:03:25;;;;;;;;;;;;;;;;;;5094348;28;19984;-64
2023/09/15 05:05:51;;;;;;;;;;;;;;;;;;5094416;28;19912;-65
2023/09/15 05:08:17;;;;;;;;;;;;;;;;;;5099912;28;19933;-65
2023/09/15 05:10:42;;;;;;;;;;;;;;;;;;5115270;28;19912;-64
2023/09/15 05:13:08;;;;;;;;;;;;;;;;;;5114559;28;19916;-64
2023/09/15 05:15:34;;;;;;;;;;;;;;;;;;5115128;28;19912;-64
2023/09/15 05:18:01;;;;;;;;;;;;;;;;;;5116700;28;19912;-63
2023/09/15 05:20:29;;;;;;;;;;;;;;;;;;5098241;28;20053;-64
2023/09/15 05:22:54;;;;;;;;;;;;;;;;;;5098223;28;19916;-66
2023/09/15 05:25:20;;;;;;;;;;;;;;;;;;5098155;28;20409;-64
2023/09/15 05:27:45;;;;;;;;;;;;;;;;;;5098130;28;19913;-64
2023/09/15 05:30:11;;;;;;;;;;;;;;;;;;5117128;28;19951;-64
2023/09/15 05:32:38;;;;;;;;;;;;;;;;;;5118531;28;19991;-63
2023/09/15 05:35:04;;;;;;;;;;;;;;;;;;5118198;28;19913;-64
2023/09/15 05:37:29;;;;;;;;;;;;;;;;;;5119065;28;19923;-64
2023/09/15 05:39:54;;;;;;;;;;;;;;;;;;5103037;28;19917;-64
2023/09/15 05:42:20;;;;;;;;;;;;;;;;;;5110209;28;19912;-63
2023/09/15 05:44:45;;;;;;;;;;;;;;;;;;5118826;28;19912;-63
2023/09/15 05:47:11;;;;;;;;;;;;;;;;;;5118730;28;19979;-64
2023/09/15 05:49:36;;;;;;;;;;;;;;;;;;5106254;28;19912;-63
2023/09/15 05:52:02;;;;;;;;;;;;;;;;;;5098257;28;19912;-63
2023/09/15 05:54:27;;;;;;;;;;;;;;;;;;5098199;28;19916;-64
2023/09/15 05:56:53;;;;;;;;;;;;;;;;;;5098308;28;19912;-64
2023/09/15 05:59:18;;;;;;;;;;;;;;;;;;5107234;28;19978;-64
2023/09/15 06:01:46;;;;;;;;;;;;;;;;;;5101903;28;19935;-63
2023/09/15 06:04:12;;;;;;;;;;;;;;;;;;5098005;28;19908;-64
2023/09/15 06:06:37;;;;;;;;;;;;;;;;;;5097854;28;19996;-63
2023/09/15 06:09:03;;;;;;;;;;;;;;;;;;5103841;28;19912;-64
2023/09/15 06:11:28;;;;;;;;;;;;;;;;;;5105864;28;19942;-64
2023/09/15 06:13:54;;;;;;;;;;;;;;;;;;5097996;28;19917;-64
2023/09/15 06:16:19;;;;;;;;;;;;;;;;;;5096679;28;19912;-63
2023/09/15 06:18:45;;;;;;;;;;;;;;;;;;5081377;28;19988;-63
2023/09/15 06:21:10;;;;;;;;;;;;;;;;;;5097812;28;19920;-65
2023/09/15 06:23:36;;;;;;;;;;;;;;;;;;5084874;28;19919;-64
2023/09/15 06:26:02;;;;;;;;;;;;;;;;;;5077231;28;19932;-65
2023/09/15 06:28:27;;;;;;;;;;;;;;;;;;5075610;28;19912;-64
2023/09/15 06:30:52;;;;;;;;;;;;;;;;;;5059014;28;19924;-65
2023/09/15 06:33:18;;;;;;;;;;;;;;;;;;5076929;28;19917;-64
2023/09/15 06:35:43;;;;;;;;;;;;;;;;;;5076953;28;19960;-64
2023/09/15 06:38:09;;;;;;;;;;;;;;;;;;5073421;28;19913;-64
2023/09/15 06:40:37;;;;;;;;;;;;;;;;;;5088501;28;19935;-64
2023/09/15 06:43:04;;;;;;;;;;;;;;;;;;5059119;28;19919;-64
2023/09/15 06:45:30;;;;;;;;;;;;;;;;;;5075930;28;19928;-64
2023/09/15 06:47:55;;;;;;;;;;;;;;;;;;5076854;28;19950;-64
2023/09/15 06:50:21;;;;;;;;;;;;;;;;;;5081181;28;19927;-64
2023/09/15 06:52:46;;;;;;;;;;;;;;;;;;5076665;28;19966;-65
2023/09/15 06:55:12;;;;;;;;;;;;;;;;;;5076325;28;19963;-64
2023/09/15 06:57:37;;;;;;;;;;;;;;;;;;5076397;28;19913;-64
2023/09/15 07:00:03;;;;;;;;;;;;;;;;;;5060237;28;19921;-64
2023/09/15 07:02:29;;;;;;;;;;;;;;;;;;5076369;28;19913;-64
2023/09/15 07:04:54;;;;;;;;;;;;;;;;;;5076415;28;19985;-64
2023/09/15 07:07:19;;;;;;;;;;;;;;;;;;5076335;28;19913;-64
2023/09/15 07:09:45;;;;;;;;;;;;;;;;;;5074774;28;19916;-64
2023/09/15 07:12:10;;;;;;;;;;;;;;;;;;5076304;28;19952;-63
2023/09/15 07:14:36;;;;;;;;;;;;;;;;;;5076746;28;19917;-63
2023/09/15 07:17:01;;;;;;;;;;;;;;;;;;5076535;28;19934;-65
2023/09/15 07:19:26;;;;;;;;;;;;;;;;;;5080073;28;19923;-63
2023/09/15 07:21:52;;;;;;;;;;;;;;;;;;5096391;28;19971;-64
2023/09/15 07:24:18;;;;;;;;;;;;;;;;;;5096513;28;19912;-64
2023/09/15 07:26:43;;;;;;;;;;;;;;;;;;5096481;28;19913;-64
2023/09/15 07:29:09;;;;;;;;;;;;;;;;;;5090366;28;19986;-63
2023/09/15 07:31:34;;;;;;;;;;;;;;;;;;5076086;28;19916;-63
2023/09/15 07:34:00;;;;;;;;;;;;;;;;;;5075944;28;19917;-64
2023/09/15 07:36:25;;;;;;;;;;;;;;;;;;5076135;28;19913;-63
2023/09/15 07:38:52;;;;;;;;;;;;;;;;;;5075763;28;19912;-64
2023/09/15 07:41:18;;;;;;;;;;;;;;;;;;5092980;28;19920;-63
2023/09/15 07:43:43;;;;;;;;;;;;;;;;;;5096018;28;19912;-62
2023/09/15 07:46:10;;;;;;;;;;;;;;;;;;5095993;28;19909;-63
2023/09/15 07:48:36;;;;;;;;;;;;;;;;;;5081004;28;19920;-60
2023/09/15 07:51:03;;;;;;;;;;;;;;;;;;5089724;28;19912;-63
2023/09/15 07:53:28;;;;;;;;;;;;;;;;;;5085262;28;19952;-64
2023/09/15 07:55:54;;;;;;;;;;;;;;;;;;5076186;28;19913;-63
2023/09/15 07:58:19;;;;;;;;;;;;;;;;;;5075031;28;19970;-63
2023/09/15 08:00:46;;;;;;;;;;;;;;;;;;5076921;28;19939;-63
2023/09/15 08:03:11;;;;;;;;;;;;;;;;;;5075217;28;19952;-65
2023/09/15 08:05:36;;;;;;;;;;;;;;;;;;5075581;28;19919;-64
2023/09/15 08:08:02;;;;;;;;;;;;;;;;;;5075147;28;19913;-63
2023/09/15 08:10:28;;;;;;;;;;;;;;;;;;5058763;28;19948;-65
2023/09/15 08:12:54;;;;;;;;;;;;;;;;;;5073002;28;19916;-64
2023/09/15 08:15:19;;;;;;;;;;;;;;;;;;5074167;28;19966;-63
2023/09/15 08:17:45;;;;;;;;;;;;;;;;;;5074876;28;19931;-64
2023/09/15 08:20:11;;;;;;;;;;;;;;;;;;5074883;28;19935;-63
2023/09/15 08:22:38;;;;;;;;;;;;;;;;;;5074764;28;19923;-64
2023/09/15 08:25:03;;;;;;;;;;;;;;;;;;5074675;28;19928;-65
2023/09/15 08:27:29;;;;;;;;;;;;;;;;;;5074558;28;19917;-65
2023/09/15 08:29:54;;;;;;;;;;;;;;;;;;5073557;28;19932;-63
2023/09/15 08:32:19;;;;;;;;;;;;;;;;;;5074324;28;19952;-63
2023/09/15 08:34:45;;;;;;;;;;;;;;;;;;5074352;28;19925;-63
2023/09/15 08:37:12;;;;;;;;;;;;;;;;;;5074543;28;19948;-64
2023/09/15 08:39:38;;;;;;;;;;;;;;;;;;5075099;28;19952;-65
2023/09/15 08:42:04;;;;;;;;;;;;;;;;;;5092474;28;19987;-64
2023/09/15 08:44:29;;;;;;;;;;;;;;;;;;5080602;28;19958;-64
2023/09/15 08:46:56;;;;;;;;;;;;;;;;;;5075020;28;19916;-64
2023/09/15 08:49:22;;;;;;;;;;;;;;;;;;5074929;28;19913;-64
2023/09/15 08:51:48;;;;;;;;;;;;;;;;;;5088387;28;19931;-65
2023/09/15 08:54:13;;;;;;;;;;;;;;;;;;5083905;28;19976;-66
2023/09/15 08:56:39;;;;;;;;;;;;;;;;;;5075194;28;19913;-65
2023/09/15 08:59:04;;;;;;;;;;;;;;;;;;5074769;28;19913;-65
2023/09/15 09:01:30;;;;;;;;;;;;;;;;;;5085494;28;19913;-64
2023/09/15 09:03:55;;;;;;;;;;;;;;;;;;5087408;28;19924;-65
2023/09/15 09:06:21;;;;;;;;;;;;;;;;;;5074885;28;19981;-64
2023/09/15 09:08:47;;;;;;;;;;;;;;;;;;5075156;28;19936;-65
2023/09/15 09:11:13;;;;;;;;;;;;;;;;;;5082609;28;19984;-65
2023/09/15 09:13:39;;;;;;;;;;;;;;;;;;5094842;28;19917;-64
2023/09/15 09:16:10;;;;;;;;;;;;;;;;;;5095252;28;19939;-63
2023/09/15 09:18:35;;;;;;;;;;;;;;;;;;5087816;28;19925;-63
2023/09/15 09:21:01;;;;;;;;;;;;;;;;;;5073589;28;19943;-63
2023/09/15 09:23:26;;;;;;;;;;;;;;;;;;5073941;28;19984;-63
2023/09/15 09:25:51;;;;;;;;;;;;;;;;;;5093662;28;19908;-63
2023/09/15 09:28:17;;;;;;;;;;;;;;;;;;5093834;28;19916;-63
2023/09/15 09:30:42;;;;;;;;;;;;;;;;;;5092648;28;19939;-63
2023/09/15 09:33:12;;;;;;;;;;;;;;;;;;5056531;28;19966;-64
2023/09/15 09:35:37;;;;;;;;;;;;;;;;;;5074321;28;19913;-63
2023/09/15 09:38:03;;;;;;;;;;;;;;;;;;5073936;28;19920;-63
2023/09/15 09:40:29;;;;;;;;;;;;;;;;;;5074026;28;19912;-63
2023/09/15 09:42:58;;;;;;;;;;;;;;;;;;5092221;28;19936;-64
2023/09/15 09:45:23;;;;;;;;;;;;;;;;;;5092654;28;19975;-64
2023/09/15 09:47:49;;;;;;;;;;;;;;;;;;5092993;28;19916;-63
2023/09/15 09:50:14;;;;;;;;;;;;;;;;;;5092707;28;19964;-63
2023/09/15 09:52:40;;;;;;;;;;;;;;;;;;5076699;28;19978;-64
2023/09/15 09:55:06;;;;;;;;;;;;;;;;;;5085622;28;19919;-63
2023/09/15 09:57:31;;;;;;;;;;;;;;;;;;5092730;28;19951;-61
2023/09/15 09:59:57;;;;;;;;;;;;;;;;;;5094231;28;19913;-63
2023/09/15 10:02:23;;;;;;;;;;;;;;;;;;5083168;28;19913;-63
2023/09/15 10:04:48;;;;;;;;;;;;;;;;;;5077989;28;19920;-62
2023/09/15 10:07:14;;;;;;;;;;;;;;;;;;5060365;28;19934;-62
2023/09/15 10:09:39;;;;;;;;;;;;;;;;;;5077944;28;19913;-63
2023/09/15 10:12:05;;;;;;;;;;;;;;;;;;5069786;28;19939;-62
2023/09/15 10:14:30;;;;;;;;;;;;;;;;;;5091531;28;19912;-64
2023/09/15 10:16:56;;;;;;;;;;;;;;;;;;5077564;28;19913;-62
2023/09/15 10:19:21;;;;;;;;;;;;;;;;;;5060501;28;19912;-62
2023/09/15 10:21:47;;;;;;;;;;;;;;;;;;5083790;28;19912;-62
2023/09/15 10:24:12;;;;;;;;;;;;;;;;;;5097573;28;19936;-63
2023/09/15 10:26:41;;;;;;;;;;;;;;;;;;5097847;28;19944;-62
2023/09/15 10:29:06;;;;;;;;;;;;;;;;;;5097724;28;19913;-63
2023/09/15 10:31:32;;;;;;;;;;;;;;;;;;5097745;28;19920;-63
2023/09/15 10:33:57;;;;;;;;;;;;;;;;;;5097393;28;19938;-64
2023/09/15 10:36:23;;;;;;;;;;;;;;;;;;5097304;28;19933;-62
2023/09/15 10:38:49;;;;;;;;;;;;;;;;;;5097593;28;19920;-63
2023/09/15 10:41:14;;;;;;;;;;;;;;;;;;5097345;28;19913;-62
2023/09/15 10:43:40;;;;;;;;;;;;;;;;;;5077304;28;19976;-63
2023/09/15 10:46:06;;;;;;;;;;;;;;;;;;5077308;28;19936;-62
2023/09/15 10:48:31;;;;;;;;;;;;;;;;;;5077320;28;19920;-62
2023/09/15 10:50:57;;;;;;;;;;;;;;;;;;5077174;28;19913;-62
2023/09/15 10:53:23;;;;;;;;;;;;;;;;;;5093583;28;19916;-62
2023/09/15 10:55:49;;;;;;;;;;;;;;;;;;5065351;28;19912;-63
2023/09/15 10:58:16;;;;;;;;;;;;;;;;;;5077151;28;19912;-63
2023/09/15 11:00:41;;;;;;;;;;;;;;;;;;5077163;28;19912;-62
2023/09/15 11:03:07;;;;;;;;;;;;;;;;;;5090622;28;19918;-62
2023/09/15 11:05:32;;;;;;;;;;;;;;;;;;5086595;28;19920;-63
2023/09/15 11:07:58;;;;;;;;;;;;;;;;;;5076840;28;19952;-63
2023/09/15 11:10:23;;;;;;;;;;;;;;;;;;5076853;28;19940;-63
2023/09/15 11:12:49;;;;;;;;;;;;;;;;;;5071781;28;19924;-63
2023/09/15 11:15:14;;;;;;;;;;;;;;;;;;5062509;28;19913;-62
2023/09/15 11:17:40;;;;;;;;;;;;;;;;;;5076693;28;19920;-62
2023/09/15 11:20:05;;;;;;;;;;;;;;;;;;5076537;28;19917;-64
2023/09/15 11:22:31;;;;;;;;;;;;;;;;;;5066291;28;19927;-62
2023/09/15 11:24:57;;;;;;;;;;;;;;;;;;5096420;28;19919;-63
2023/09/15 11:27:22;;;;;;;;;;;;;;;;;;5096081;28;19979;-62
2023/09/15 11:29:49;;;;;;;;;;;;;;;;;;5096470;28;19913;-62
2023/09/15 11:32:14;;;;;;;;;;;;;;;;;;5096165;28;19913;-62
2023/09/15 11:34:42;;;;;;;;;;;;;;;;;;5095636;28;20218;-63
2023/09/15 11:37:07;;;;;;;;;;;;;;;;;;5076745;28;19908;-62
2023/09/15 11:39:32;;;;;;;;;;;;;;;;;;5076310;28;19913;-63
2023/09/15 11:41:58;;;;;;;;;;;;;;;;;;5077487;28;19916;-62
2023/09/15 11:44:26;;;;;;;;;;;;;;;;;;5096289;28;19935;-62
2023/09/15 11:46:52;;;;;;;;;;;;;;;;;;5096068;28;19934;-63
2023/09/15 11:49:18;;;;;;;;;;;;;;;;;;5096181;28;19913;-63
2023/09/15 11:51:44;;;;;;;;;;;;;;;;;;5096082;28;19919;-63
2023/09/15 11:54:09;;;;;;;;;;;;;;;;;;5077514;28;19917;-62
2023/09/15 11:56:35;;;;;;;;;;;;;;;;;;5089168;28;19917;-63
2023/09/15 11:59:00;;;;;;;;;;;;;;;;;;5095799;28;19935;-63
2023/09/15 12:01:26;;;;;;;;;;;;;;;;;;5078147;28;19916;-63
2023/09/15 12:03:51;;;;;;;;;;;;;;;;;;5081266;28;19935;-63
2023/09/15 12:06:17;;;;;;;;;;;;;;;;;;5075649;28;19995;-62
2023/09/15 12:08:43;;;;;;;;;;;;;;;;;;5075715;28;19948;-63
2023/09/15 12:11:08;;;;;;;;;;;;;;;;;;5075830;28;19919;-63
2023/09/15 12:13:35;;;;;;;;;;;;;;;;;;5086344;28;19923;-63
2023/09/15 12:16:01;;;;;;;;;;;;;;;;;;5089436;28;19913;-63
2023/09/15 12:18:26;;;;;;;;;;;;;;;;;;5075296;28;19996;-63
2023/09/15 12:20:52;;;;;;;;;;;;;;;;;;5075604;28;19919;-63
2023/09/15 12:23:17;;;;;;;;;;;;;;;;;;5082677;28;19912;-63
2023/09/15 12:25:43;;;;;;;;;;;;;;;;;;5092480;28;19912;-62
2023/09/15 12:28:08;;;;;;;;;;;;;;;;;;5075355;28;19920;-62
2023/09/15 12:30:34;;;;;;;;;;;;;;;;;;5075439;28;19947;-63
2023/09/15 12:32:59;;;;;;;;;;;;;;;;;;5079542;28;19932;-62
2023/09/15 12:35:25;;;;;;;;;;;;;;;;;;5095479;28;19917;-63
2023/09/15 12:37:52;;;;;;;;;;;;;;;;;;5095265;28;19955;-63
2023/09/15 12:40:17;;;;;;;;;;;;;;;;;;5095078;28;19928;-63
2023/09/15 12:42:46;;;;;;;;;;;;;;;;;;5094379;28;19919;-63
2023/09/15 12:45:14;;;;;;;;;;;;;;;;;;5075064;28;19924;-63
2023/09/15 12:47:40;;;;;;;;;;;;;;;;;;5091946;28;19909;-63
2023/09/15 12:50:05;;;;;;;;;;;;;;;;;;5095138;28;19916;-63
2023/09/15 12:52:31;;;;;;;;;;;;;;;;;;5077758;28;19912;-63
2023/09/15 12:54:57;;;;;;;;;;;;;;;;;;5075808;28;19935;-63
2023/09/15 12:57:23;;;;;;;;;;;;;;;;;;5075016;28;19913;-63
2023/09/15 12:59:49;;;;;;;;;;;;;;;;;;5075065;28;19936;-63
2023/09/15 13:02:14;;;;;;;;;;;;;;;;;;5057219;28;19924;-63
2023/09/15 13:04:40;;;;;;;;;;;;;;;;;;5090860;28;20014;-63
2023/09/15 13:07:05;;;;;;;;;;;;;;;;;;5094809;28;19916;-63
2023/09/15 13:09:31;;;;;;;;;;;;;;;;;;5095092;28;19923;-63
2023/09/15 13:12:00;;;;;;;;;;;;;;;;;;5095018;28;19912;-63
2023/09/15 13:14:25;;;;;;;;;;;;;;;;;;5081972;28;19921;-64
2023/09/15 13:16:51;;;;;;;;;;;;;;;;;;5074443;28;19913;-64
2023/09/15 13:19:16;;;;;;;;;;;;;;;;;;5074838;28;19952;-63
2023/09/15 13:21:42;;;;;;;;;;;;;;;;;;5074947;28;19920;-64
2023/09/15 13:24:07;;;;;;;;;;;;;;;;;;5084315;28;19939;-63
2023/09/15 13:26:33;;;;;;;;;;;;;;;;;;5092502;28;19919;-63
2023/09/15 13:28:58;;;;;;;;;;;;;;;;;;5074626;28;19920;-63
2023/09/15 13:31:24;;;;;;;;;;;;;;;;;;5074540;28;19913;-64
2023/09/15 13:33:49;;;;;;;;;;;;;;;;;;5080359;28;19939;-63
2023/09/15 13:36:18;;;;;;;;;;;;;;;;;;5094771;28;19981;-63
2023/09/15 13:38:43;;;;;;;;;;;;;;;;;;5098382;28;19965;-64
2023/09/15 13:41:09;;;;;;;;;;;;;;;;;;5098665;28;19912;-64
2023/09/15 13:43:34;;;;;;;;;;;;;;;;;;5096346;28;19912;-63
2023/09/15 13:46:00;;;;;;;;;;;;;;;;;;5061142;28;19941;-64
2023/09/15 13:48:26;;;;;;;;;;;;;;;;;;5094282;28;19916;-64
2023/09/15 13:50:51;;;;;;;;;;;;;;;;;;5098344;28;19936;-61
2023/09/15 13:53:16;;;;;;;;;;;;;;;;;;5098124;28;19916;-62
2023/09/15 13:55:42;;;;;;;;;;;;;;;;;;5079588;28;19976;-64
2023/09/15 13:58:07;;;;;;;;;;;;;;;;;;5090707;28;19919;-64
2023/09/15 14:00:33;;;;;;;;;;;;;;;;;;5098098;28;19913;-64
2023/09/15 14:02:58;;;;;;;;;;;;;;;;;;5098052;28;19920;-64
2023/09/15 14:05:23;;;;;;;;;;;;;;;;;;5083131;28;19949;-64
2023/09/15 14:07:50;;;;;;;;;;;;;;;;;;5077960;28;19913;-64
2023/09/15 14:10:16;;;;;;;;;;;;;;;;;;5077725;28;19924;-63
2023/09/15 14:12:41;;;;;;;;;;;;;;;;;;5077907;28;19952;-63
2023/09/15 14:15:09;;;;;;;;;;;;;;;;;;5089375;28;19979;-63
2023/09/15 14:17:35;;;;;;;;;;;;;;;;;;5097662;28;19944;-63
2023/09/15 14:20:01;;;;;;;;;;;;;;;;;;5097774;28;19912;-64
2023/09/15 14:22:27;;;;;;;;;;;;;;;;;;5097801;28;19923;-63
2023/09/15 14:24:52;;;;;;;;;;;;;;;;;;5071270;28;20000;-63
2023/09/15 14:27:18;;;;;;;;;;;;;;;;;;5077429;28;19913;-64
2023/09/15 14:29:44;;;;;;;;;;;;;;;;;;5077460;28;19916;-63
2023/09/15 14:32:10;;;;;;;;;;;;;;;;;;5077272;28;19919;-63
2023/09/15 14:34:36;;;;;;;;;;;;;;;;;;5082801;28;19991;-64
2023/09/15 14:37:01;;;;;;;;;;;;;;;;;;5079931;28;19912;-64
2023/09/15 14:39:26;;;;;;;;;;;;;;;;;;5097256;28;19917;-63
2023/09/15 14:41:52;;;;;;;;;;;;;;;;;;5097491;28;19920;-63
2023/09/15 14:44:17;;;;;;;;;;;;;;;;;;5095954;28;19913;-63
2023/09/15 14:46:44;;;;;;;;;;;;;;;;;;5077355;28;19913;-64
2023/09/15 14:49:10;;;;;;;;;;;;;;;;;;5076378;28;19920;-64
2023/09/15 14:51:38;;;;;;;;;;;;;;;;;;5077431;28;19917;-64
2023/09/15 14:54:03;;;;;;;;;;;;;;;;;;5077128;28;19952;-63
2023/09/15 14:56:29;;;;;;;;;;;;;;;;;;5095540;28;19923;-63
2023/09/15 14:58:55;;;;;;;;;;;;;;;;;;5097038;28;19919;-64
2023/09/15 15:01:20;;;;;;;;;;;;;;;;;;5097233;28;20079;-63
2023/09/15 15:03:46;;;;;;;;;;;;;;;;;;5097293;28;19983;-64
2023/09/15 15:06:11;;;;;;;;;;;;;;;;;;5081592;28;20000;-63
2023/09/15 15:08:37;;;;;;;;;;;;;;;;;;5077010;28;19948;-64
2023/09/15 15:11:03;;;;;;;;;;;;;;;;;;5076696;28;19943;-64
2023/09/15 15:13:29;;;;;;;;;;;;;;;;;;5059476;28;19936;-63
2023/09/15 15:15:55;;;;;;;;;;;;;;;;;;5088560;28;19913;-63
2023/09/15 15:18:20;;;;;;;;;;;;;;;;;;5091895;28;19921;-63
2023/09/15 15:20:46;;;;;;;;;;;;;;;;;;5076748;28;19963;-63
2023/09/15 15:23:12;;;;;;;;;;;;;;;;;;5076685;28;19984;-63
2023/09/15 15:25:38;;;;;;;;;;;;;;;;;;5084776;28;19908;-63
2023/09/15 15:28:03;;;;;;;;;;;;;;;;;;5096547;28;19913;-64
2023/09/15 15:30:28;;;;;;;;;;;;;;;;;;5096208;28;19931;-63
2023/09/15 15:32:54;;;;;;;;;;;;;;;;;;5096604;28;19985;-64
2023/09/15 15:35:21;;;;;;;;;;;;;;;;;;5092002;28;19913;-63
2023/09/15 15:37:46;;;;;;;;;;;;;;;;;;5076525;28;19916;-63
2023/09/15 15:40:12;;;;;;;;;;;;;;;;;;5076241;28;19920;-64
2023/09/15 15:42:37;;;;;;;;;;;;;;;;;;5076234;28;19979;-63
2023/09/15 15:45:03;;;;;;;;;;;;;;;;;;5076783;28;19923;-64
2023/09/15 15:47:28;;;;;;;;;;;;;;;;;;5096101;28;19993;-63
2023/09/15 15:49:53;;;;;;;;;;;;;;;;;;5085722;28;19913;-64
2023/09/15 15:52:19;;;;;;;;;;;;;;;;;;5075912;28;19913;-64
2023/09/15 15:54:46;;;;;;;;;;;;;;;;;;5075598;28;19944;-63
2023/09/15 15:57:12;;;;;;;;;;;;;;;;;;5093660;28;19916;-63
2023/09/15 15:59:37;;;;;;;;;;;;;;;;;;5095797;28;19934;-63
2023/09/15 16:02:03;;;;;;;;;;;;;;;;;;5078377;28;19913;-62
2023/09/15 16:04:28;;;;;;;;;;;;;;;;;;5095347;28;19939;-62
2023/09/15 16:06:55;;;;;;;;;;;;;;;;;;5080707;28;19913;-63
2023/09/15 16:09:20;;;;;;;;;;;;;;;;;;5062153;28;19951;-62
2023/09/15 16:11:48;;;;;;;;;;;;;;;;;;5095677;28;19916;-62
2023/09/15 16:14:15;;;;;;;;;;;;;;;;;;5095657;28;19913;-62
2023/09/15 16:16:40;;;;;;;;;;;;;;;;;;5082605;28;19977;-61
2023/09/15 16:19:05;;;;;;;;;;;;;;;;;;5075676;28;19921;-62
2023/09/15 16:21:33;;;;;;;;;;;;;;;;;;5075396;28;19920;-62
2023/09/15 16:23:59;;;;;;;;;;;;;;;;;;5075446;28;19913;-62
2023/09/15 16:26:24;;;;;;;;;;;;;;;;;;5084967;28;19913;-62
2023/09/15 16:28:50;;;;;;;;;;;;;;;;;;5095541;28;19946;-62
2023/09/15 16:31:16;;;;;;;;;;;;;;;;;;5095392;28;19951;-62
2023/09/15 16:33:41;;;;;;;;;;;;;;;;;;5095241;28;20002;-62
2023/09/15 16:36:07;;;;;;;;;;;;;;;;;;5089416;28;20078;-62